sensor_id;sensor_type;location;lat;lon;timestamp;temperature;humidity
2314;DHT22;42279;51.388;7.000;2023-06-22T00:02:19;23.50;97.70
2314;DHT22;42279;51.388;7.000;2023-06-22T00:04:52;23.50;97.70
2314;DHT22;42279;51.388;7.000;2023-06-22T00:07:21;23.40;98.20
2314;DHT22;42279;51.388;7.000;2023-06-22T00:09:49;23.40;98.10
2314;DHT22;42279;51.388;7.000;2023-06-22T00:12:15;23.40;98.10
2314;DHT22;42279;51.388;7.000;2023-06-22T00:14:52;23.40;98.40
2314;DHT22;42279;51.388;7.000;2023-06-22T00:17:18;23.50;98.60
2314;DHT22;42279;51.388;7.000;2023-06-22T00:19:47;23.50;98.50
2314;DHT22;42279;51.388;7.000;2023-06-22T00:22:17;23.40;98.80
2314;DHT22;42279;51.388;7.000;2023-06-22T00:24:46;23.50;99.10
2314;DHT22;42279;51.388;7.000;2023-06-22T00:27:11;23.40;99.40
2314;DHT22;42279;51.388;7.000;2023-06-22T00:29:37;23.40;99.70
2314;DHT22;42279;51.388;7.000;2023-06-22T00:32:03;23.30;99.90
2314;DHT22;42279;51.388;7.000;2023-06-22T00:34:29;23.20;99.90
2314;DHT22;42279;51.388;7.000;2023-06-22T00:37:00;23.20;99.90
2314;DHT22;42279;51.388;7.000;2023-06-22T00:39:28;23.10;99.90
2314;DHT22;42279;51.388;7.000;2023-06-22T00:41:53;23.10;99.90
2314;DHT22;42279;51.388;7.000;2023-06-22T00:44:20;23.10;99.90
2314;DHT22;42279;51.388;7.000;2023-06-22T00:46:45;23.30;99.90
2314;DHT22;42279;51.388;7.000;2023-06-22T00:49:11;23.20;99.90
2314;DHT22;42279;51.388;7.000;2023-06-22T00:51:39;23.20;99.90
2314;DHT22;42279;51.388;7.000;2023-06-22T00:54:22;23.10;99.90
2314;DHT22;42279;51.388;7.000;2023-06-22T00:56:52;23.10;99.90
2314;DHT22;42279;51.388;7.000;2023-06-22T00:59:20;23.10;99.90
2314;DHT22;42279;51.388;7.000;2023-06-22T01:01:46;22.90;99.90
2314;DHT22;42279;51.388;7.000;2023-06-22T01:04:15;22.90;99.90
2314;DHT22;42279;51.388;7.000;2023-06-22T01:07:22;23.00;99.90
2314;DHT22;42279;51.388;7.000;2023-06-22T01:10:10;23.10;99.90
2314;DHT22;42279;51.388;7.000;2023-06-22T01:12:44;23.20;99.90
2314;DHT22;42279;51.388;7.000;2023-06-22T01:18:42;23.10;99.90
2314;DHT22;42279;51.388;7.000;2023-06-22T01:21:14;23.00;99.90
2314;DHT22;42279;51.388;7.000;2023-06-22T01:24:22;22.90;99.90
2314;DHT22;42279;51.388;7.000;2023-06-22T01:29:41;22.80;99.90
2314;DHT22;42279;51.388;7.000;2023-06-22T01:32:10;22.90;99.90
2314;DHT22;42279;51.388;7.000;2023-06-22T01:34:38;22.90;99.90
2314;DHT22;42279;51.388;7.000;2023-06-22T01:37:06;23.00;99.90
2314;DHT22;42279;51.388;7.000;2023-06-22T01:39:41;23.10;99.90
2314;DHT22;42279;51.388;7.000;2023-06-22T01:42:13;23.20;99.90
2314;DHT22;42279;51.388;7.000;2023-06-22T01:44:39;23.00;99.90
2314;DHT22;42279;51.388;7.000;2023-06-22T01:47:05;22.90;99.90
2314;DHT22;42279;51.388;7.000;2023-06-22T01:49:33;22.90;99.90
2314;DHT22;42279;51.388;7.000;2023-06-22T01:52:01;22.80;99.90
2314;DHT22;42279;51.388;7.000;2023-06-22T01:54:26;22.90;99.90
2314;DHT22;42279;51.388;7.000;2023-06-22T01:56:52;22.70;99.90
2314;DHT22;42279;51.388;7.000;2023-06-22T01:59:20;22.60;99.90
2314;DHT22;42279;51.388;7.000;2023-06-22T02:02:07;22.60;99.90
2314;DHT22;42279;51.388;7.000;2023-06-22T02:04:48;22.60;99.90
2314;DHT22;42279;51.388;7.000;2023-06-22T02:07:49;22.70;99.90
2314;DHT22;42279;51.388;7.000;2023-06-22T02:10:20;22.80;99.90
2314;DHT22;42279;51.388;7.000;2023-06-22T02:12:47;22.70;99.90
2314;DHT22;42279;51.388;7.000;2023-06-22T02:15:22;22.50;99.90
2314;DHT22;42279;51.388;7.000;2023-06-22T02:17:48;22.50;99.90
2314;DHT22;42279;51.388;7.000;2023-06-22T02:20:14;22.50;99.90
2314;DHT22;42279;51.388;7.000;2023-06-22T02:22:40;22.50;99.90
2314;DHT22;42279;51.388;7.000;2023-06-22T02:25:06;22.30;99.90
2314;DHT22;42279;51.388;7.000;2023-06-22T02:27:32;22.20;99.90
2314;DHT22;42279;51.388;7.000;2023-06-22T02:29:57;22.20;99.90
2314;DHT22;42279;51.388;7.000;2023-06-22T02:32:24;22.30;99.90
2314;DHT22;42279;51.388;7.000;2023-06-22T02:34:59;22.20;99.90
2314;DHT22;42279;51.388;7.000;2023-06-22T02:37:24;22.20;99.90
2314;DHT22;42279;51.388;7.000;2023-06-22T02:39:53;22.20;99.90
2314;DHT22;42279;51.388;7.000;2023-06-22T02:42:18;22.10;99.90
2314;DHT22;42279;51.388;7.000;2023-06-22T02:44:53;22.10;99.90
2314;DHT22;42279;51.388;7.000;2023-06-22T02:47:19;22.00;99.90
2314;DHT22;42279;51.388;7.000;2023-06-22T02:49:51;22.20;99.90
2314;DHT22;42279;51.388;7.000;2023-06-22T02:52:19;22.10;99.90
2314;DHT22;42279;51.388;7.000;2023-06-22T02:54:45;22.10;99.90
2314;DHT22;42279;51.388;7.000;2023-06-22T02:57:11;22.10;99.90
2314;DHT22;42279;51.388;7.000;2023-06-22T02:59:39;22.10;99.90
2314;DHT22;42279;51.388;7.000;2023-06-22T03:02:06;22.10;99.90
2314;DHT22;42279;51.388;7.000;2023-06-22T03:04:32;22.10;99.90
2314;DHT22;42279;51.388;7.000;2023-06-22T03:06:57;22.20;99.90
2314;DHT22;42279;51.388;7.000;2023-06-22T03:09:27;22.10;99.90
2314;DHT22;42279;51.388;7.000;2023-06-22T03:11:55;22.10;99.90
2314;DHT22;42279;51.388;7.000;2023-06-22T03:14:21;22.10;99.90
2314;DHT22;42279;51.388;7.000;2023-06-22T03:16:47;22.00;99.90
2314;DHT22;42279;51.388;7.000;2023-06-22T03:19:13;21.90;99.90
2314;DHT22;42279;51.388;7.000;2023-06-22T03:21:39;22.00;99.90
2314;DHT22;42279;51.388;7.000;2023-06-22T03:24:08;22.00;99.90
2314;DHT22;42279;51.388;7.000;2023-06-22T03:26:36;22.10;99.90
2314;DHT22;42279;51.388;7.000;2023-06-22T03:29:02;22.10;99.90
2314;DHT22;42279;51.388;7.000;2023-06-22T03:31:29;21.90;99.90
2314;DHT22;42279;51.388;7.000;2023-06-22T03:33:55;22.00;99.90
2314;DHT22;42279;51.388;7.000;2023-06-22T03:36:21;22.00;99.90
2314;DHT22;42279;51.388;7.000;2023-06-22T03:38:48;21.90;99.90
2314;DHT22;42279;51.388;7.000;2023-06-22T03:41:14;22.10;99.90
2314;DHT22;42279;51.388;7.000;2023-06-22T03:43:41;22.10;99.90
2314;DHT22;42279;51.388;7.000;2023-06-22T03:46:07;22.10;99.90
2314;DHT22;42279;51.388;7.000;2023-06-22T03:48:32;22.10;99.90
2314;DHT22;42279;51.388;7.000;2023-06-22T03:51:02;22.20;99.90
2314;DHT22;42279;51.388;7.000;2023-06-22T03:53:28;22.20;99.90
2314;DHT22;42279;51.388;7.000;2023-06-22T03:55:54;22.30;99.90
2314;DHT22;42279;51.388;7.000;2023-06-22T03:58:20;22.40;99.90
2314;DHT22;42279;51.388;7.000;2023-06-22T04:00:50;22.50;99.90
2314;DHT22;42279;51.388;7.000;2023-06-22T04:03:16;22.40;99.90
2314;DHT22;42279;51.388;7.000;2023-06-22T04:05:43;22.20;99.90
2314;DHT22;42279;51.388;7.000;2023-06-22T04:08:09;22.30;99.90
2314;DHT22;42279;51.388;7.000;2023-06-22T04:10:35;22.20;99.90
2314;DHT22;42279;51.388;7.000;2023-06-22T04:13:00;22.30;99.90
2314;DHT22;42279;51.388;7.000;2023-06-22T04:15:26;22.30;99.90
2314;DHT22;42279;51.388;7.000;2023-06-22T04:17:52;22.50;99.90
2314;DHT22;42279;51.388;7.000;2023-06-22T04:20:18;22.60;99.90
2314;DHT22;42279;51.388;7.000;2023-06-22T04:22:46;22.60;99.90
2314;DHT22;42279;51.388;7.000;2023-06-22T04:25:11;22.60;99.90
2314;DHT22;42279;51.388;7.000;2023-06-22T04:27:37;22.50;99.90
2314;DHT22;42279;51.388;7.000;2023-06-22T04:30:06;22.40;99.90
2314;DHT22;42279;51.388;7.000;2023-06-22T04:32:32;22.30;99.90
2314;DHT22;42279;51.388;7.000;2023-06-22T04:34:58;22.30;99.90
2314;DHT22;42279;51.388;7.000;2023-06-22T04:37:25;22.30;99.90
2314;DHT22;42279;51.388;7.000;2023-06-22T04:39:51;22.40;99.90
2314;DHT22;42279;51.388;7.000;2023-06-22T04:42:19;22.30;99.90
2314;DHT22;42279;51.388;7.000;2023-06-22T04:44:44;22.20;99.90
2314;DHT22;42279;51.388;7.000;2023-06-22T04:47:10;22.10;99.90
2314;DHT22;42279;51.388;7.000;2023-06-22T04:49:37;22.20;99.90
2314;DHT22;42279;51.388;7.000;2023-06-22T04:52:10;22.30;99.90
2314;DHT22;42279;51.388;7.000;2023-06-22T04:54:37;22.20;99.90
2314;DHT22;42279;51.388;7.000;2023-06-22T04:57:05;22.10;99.90
2314;DHT22;42279;51.388;7.000;2023-06-22T04:59:35;22.00;99.90
2314;DHT22;42279;51.388;7.000;2023-06-22T05:02:05;22.00;99.90
2314;DHT22;42279;51.388;7.000;2023-06-22T05:04:31;21.90;99.90
2314;DHT22;42279;51.388;7.000;2023-06-22T05:06:58;21.90;99.90
2314;DHT22;42279;51.388;7.000;2023-06-22T05:09:24;21.90;99.90
2314;DHT22;42279;51.388;7.000;2023-06-22T05:11:54;21.80;99.90
2314;DHT22;42279;51.388;7.000;2023-06-22T05:14:19;21.70;99.90
2314;DHT22;42279;51.388;7.000;2023-06-22T05:16:46;21.70;99.90
2314;DHT22;42279;51.388;7.000;2023-06-22T05:19:12;21.70;99.90
2314;DHT22;42279;51.388;7.000;2023-06-22T05:21:38;21.60;99.90
2314;DHT22;42279;51.388;7.000;2023-06-22T05:24:04;21.60;99.90
2314;DHT22;42279;51.388;7.000;2023-06-22T05:26:37;21.60;99.90
2314;DHT22;42279;51.388;7.000;2023-06-22T05:29:08;21.70;99.90
2314;DHT22;42279;51.388;7.000;2023-06-22T05:31:40;21.60;99.90
2314;DHT22;42279;51.388;7.000;2023-06-22T05:34:12;21.80;99.90
2314;DHT22;42279;51.388;7.000;2023-06-22T05:36:39;21.80;99.90
2314;DHT22;42279;51.388;7.000;2023-06-22T05:39:13;21.90;99.90
2314;DHT22;42279;51.388;7.000;2023-06-22T05:41:41;21.80;99.90
2314;DHT22;42279;51.388;7.000;2023-06-22T05:44:08;21.90;99.90
2314;DHT22;42279;51.388;7.000;2023-06-22T05:46:34;21.90;99.90
2314;DHT22;42279;51.388;7.000;2023-06-22T05:48:59;22.00;99.90
2314;DHT22;42279;51.388;7.000;2023-06-22T05:51:27;22.10;99.90
2314;DHT22;42279;51.388;7.000;2023-06-22T05:53:54;22.10;99.90
2314;DHT22;42279;51.388;7.000;2023-06-22T05:56:20;22.30;99.90
2314;DHT22;42279;51.388;7.000;2023-06-22T05:58:46;22.20;99.90
2314;DHT22;42279;51.388;7.000;2023-06-22T06:01:11;22.20;99.90
2314;DHT22;42279;51.388;7.000;2023-06-22T06:03:37;22.20;99.90
2314;DHT22;42279;51.388;7.000;2023-06-22T06:06:07;22.20;99.90
2314;DHT22;42279;51.388;7.000;2023-06-22T06:08:35;22.30;99.90
2314;DHT22;42279;51.388;7.000;2023-06-22T06:11:00;22.10;99.90
2314;DHT22;42279;51.388;7.000;2023-06-22T06:13:26;22.20;99.90
2314;DHT22;42279;51.388;7.000;2023-06-22T06:15:51;22.20;99.90
2314;DHT22;42279;51.388;7.000;2023-06-22T06:18:20;22.30;99.90
2314;DHT22;42279;51.388;7.000;2023-06-22T06:20:46;22.40;99.90
2314;DHT22;42279;51.388;7.000;2023-06-22T06:23:11;22.40;99.90
2314;DHT22;42279;51.388;7.000;2023-06-22T06:25:38;22.50;99.90
2314;DHT22;42279;51.388;7.000;2023-06-22T06:28:04;22.50;99.90
2314;DHT22;42279;51.388;7.000;2023-06-22T06:30:30;22.60;99.90
2314;DHT22;42279;51.388;7.000;2023-06-22T06:32:55;22.80;99.90
2314;DHT22;42279;51.388;7.000;2023-06-22T06:35:21;22.90;99.90
2314;DHT22;42279;51.388;7.000;2023-06-22T06:37:49;23.20;99.90
2314;DHT22;42279;51.388;7.000;2023-06-22T06:40:16;23.40;99.90
2314;DHT22;42279;51.388;7.000;2023-06-22T06:42:46;23.50;99.90
2314;DHT22;42279;51.388;7.000;2023-06-22T06:45:19;23.50;99.90
2314;DHT22;42279;51.388;7.000;2023-06-22T06:47:46;23.70;99.90
2314;DHT22;42279;51.388;7.000;2023-06-22T06:50:12;23.60;99.90
2314;DHT22;42279;51.388;7.000;2023-06-22T06:52:38;23.70;99.90
2314;DHT22;42279;51.388;7.000;2023-06-22T06:55:04;23.50;99.90
2314;DHT22;42279;51.388;7.000;2023-06-22T06:57:31;23.50;99.90
2314;DHT22;42279;51.388;7.000;2023-06-22T07:00:08;23.50;99.90
2314;DHT22;42279;51.388;7.000;2023-06-22T07:02:39;23.60;99.90
2314;DHT22;42279;51.388;7.000;2023-06-22T07:05:06;23.60;99.90
2314;DHT22;42279;51.388;7.000;2023-06-22T07:07:32;23.50;99.90
2314;DHT22;42279;51.388;7.000;2023-06-22T07:10:00;23.60;99.90
2314;DHT22;42279;51.388;7.000;2023-06-22T07:12:34;23.60;99.90
2314;DHT22;42279;51.388;7.000;2023-06-22T07:15:08;23.60;99.90
2314;DHT22;42279;51.388;7.000;2023-06-22T07:17:35;23.60;99.90
2314;DHT22;42279;51.388;7.000;2023-06-22T07:20:02;23.50;99.90
2314;DHT22;42279;51.388;7.000;2023-06-22T07:22:29;23.30;99.90
2314;DHT22;42279;51.388;7.000;2023-06-22T07:24:55;23.20;99.90
2314;DHT22;42279;51.388;7.000;2023-06-22T07:27:21;23.00;99.90
2314;DHT22;42279;51.388;7.000;2023-06-22T07:29:47;23.00;99.90
2314;DHT22;42279;51.388;7.000;2023-06-22T07:32:12;22.70;99.90
2314;DHT22;42279;51.388;7.000;2023-06-22T07:34:38;22.20;99.90
2314;DHT22;42279;51.388;7.000;2023-06-22T07:37:04;21.90;99.90
2314;DHT22;42279;51.388;7.000;2023-06-22T07:39:30;21.60;99.90
2314;DHT22;42279;51.388;7.000;2023-06-22T07:41:55;21.60;99.90
2314;DHT22;42279;51.388;7.000;2023-06-22T07:44:21;21.50;99.90
2314;DHT22;42279;51.388;7.000;2023-06-22T07:46:49;21.50;99.90
2314;DHT22;42279;51.388;7.000;2023-06-22T07:49:14;21.40;99.90
2314;DHT22;42279;51.388;7.000;2023-06-22T07:51:40;21.40;99.90
2314;DHT22;42279;51.388;7.000;2023-06-22T07:54:05;21.50;99.90
2314;DHT22;42279;51.388;7.000;2023-06-22T07:56:31;21.40;99.90
2314;DHT22;42279;51.388;7.000;2023-06-22T07:58:58;21.30;99.90
2314;DHT22;42279;51.388;7.000;2023-06-22T08:01:26;21.40;99.90
2314;DHT22;42279;51.388;7.000;2023-06-22T08:03:51;21.30;99.90
2314;DHT22;42279;51.388;7.000;2023-06-22T08:06:17;21.30;99.90
2314;DHT22;42279;51.388;7.000;2023-06-22T08:08:43;21.30;99.90
2314;DHT22;42279;51.388;7.000;2023-06-22T08:11:09;21.30;99.90
2314;DHT22;42279;51.388;7.000;2023-06-22T08:13:34;21.20;99.90
2314;DHT22;42279;51.388;7.000;2023-06-22T08:16:00;21.20;99.90
2314;DHT22;42279;51.388;7.000;2023-06-22T08:18:26;21.20;99.90
2314;DHT22;42279;51.388;7.000;2023-06-22T08:20:51;21.30;99.90
2314;DHT22;42279;51.388;7.000;2023-06-22T08:23:20;21.40;99.90
2314;DHT22;42279;51.388;7.000;2023-06-22T08:25:47;21.50;99.90
2314;DHT22;42279;51.388;7.000;2023-06-22T08:28:14;21.70;99.90
2314;DHT22;42279;51.388;7.000;2023-06-22T08:30:40;21.90;99.90
2314;DHT22;42279;51.388;7.000;2023-06-22T08:33:06;22.00;99.90
2314;DHT22;42279;51.388;7.000;2023-06-22T08:35:39;22.20;99.90
2314;DHT22;42279;51.388;7.000;2023-06-22T08:38:11;22.40;99.90
2314;DHT22;42279;51.388;7.000;2023-06-22T08:40:44;22.60;99.90
2314;DHT22;42279;51.388;7.000;2023-06-22T08:43:09;22.70;99.90
2314;DHT22;42279;51.388;7.000;2023-06-22T08:45:37;22.80;99.90
2314;DHT22;42279;51.388;7.000;2023-06-22T08:48:22;23.00;99.90
2314;DHT22;42279;51.388;7.000;2023-06-22T08:50:48;23.20;99.90
2314;DHT22;42279;51.388;7.000;2023-06-22T08:53:14;23.50;99.90
2314;DHT22;42279;51.388;7.000;2023-06-22T08:55:45;23.80;99.90
2314;DHT22;42279;51.388;7.000;2023-06-22T08:58:16;24.10;99.90
2314;DHT22;42279;51.388;7.000;2023-06-22T09:00:42;24.50;99.90
2314;DHT22;42279;51.388;7.000;2023-06-22T09:03:11;24.90;99.90
2314;DHT22;42279;51.388;7.000;2023-06-22T09:05:39;25.20;99.90
2314;DHT22;42279;51.388;7.000;2023-06-22T09:08:05;25.40;99.90
2314;DHT22;42279;51.388;7.000;2023-06-22T09:10:30;25.70;99.90
2314;DHT22;42279;51.388;7.000;2023-06-22T09:12:58;26.60;99.90
2314;DHT22;42279;51.388;7.000;2023-06-22T09:15:24;27.40;99.90
2314;DHT22;42279;51.388;7.000;2023-06-22T09:17:52;27.50;99.90
2314;DHT22;42279;51.388;7.000;2023-06-22T09:20:19;27.70;99.90
2314;DHT22;42279;51.388;7.000;2023-06-22T09:22:45;28.60;99.90
2314;DHT22;42279;51.388;7.000;2023-06-22T09:25:13;29.60;99.90
2314;DHT22;42279;51.388;7.000;2023-06-22T09:27:39;29.90;99.90
2314;DHT22;42279;51.388;7.000;2023-06-22T09:30:05;29.60;99.90
2314;DHT22;42279;51.388;7.000;2023-06-22T09:32:31;29.60;99.90
2314;DHT22;42279;51.388;7.000;2023-06-22T09:34:56;28.70;99.90
2314;DHT22;42279;51.388;7.000;2023-06-22T09:37:22;28.70;99.90
2314;DHT22;42279;51.388;7.000;2023-06-22T09:39:48;29.40;99.90
2314;DHT22;42279;51.388;7.000;2023-06-22T09:42:13;29.50;99.90
2314;DHT22;42279;51.388;7.000;2023-06-22T09:44:39;29.50;99.90
2314;DHT22;42279;51.388;7.000;2023-06-22T09:47:05;29.40;99.90
2314;DHT22;42279;51.388;7.000;2023-06-22T09:49:31;28.90;99.90
2314;DHT22;42279;51.388;7.000;2023-06-22T09:51:57;29.00;99.90
2314;DHT22;42279;51.388;7.000;2023-06-22T09:54:23;28.80;99.90
2314;DHT22;42279;51.388;7.000;2023-06-22T09:56:48;28.80;99.90
2314;DHT22;42279;51.388;7.000;2023-06-22T09:59:14;29.10;99.90
2314;DHT22;42279;51.388;7.000;2023-06-22T10:01:39;29.40;99.90
2314;DHT22;42279;51.388;7.000;2023-06-22T10:04:05;29.70;99.90
2314;DHT22;42279;51.388;7.000;2023-06-22T10:06:30;29.80;99.90
2314;DHT22;42279;51.388;7.000;2023-06-22T10:08:56;29.10;99.90
2314;DHT22;42279;51.388;7.000;2023-06-22T10:11:22;29.30;99.90
2314;DHT22;42279;51.388;7.000;2023-06-22T10:13:54;29.60;99.90
2314;DHT22;42279;51.388;7.000;2023-06-22T10:16:20;29.70;99.90
2314;DHT22;42279;51.388;7.000;2023-06-22T10:18:45;29.90;99.70
2314;DHT22;42279;51.388;7.000;2023-06-22T10:21:11;29.80;99.70
2314;DHT22;42279;51.388;7.000;2023-06-22T10:23:36;29.30;99.70
2314;DHT22;42279;51.388;7.000;2023-06-22T10:26:02;29.20;99.90
2314;DHT22;42279;51.388;7.000;2023-06-22T10:28:28;29.60;99.90
2314;DHT22;42279;51.388;7.000;2023-06-22T10:30:53;30.10;99.50
2314;DHT22;42279;51.388;7.000;2023-06-22T10:33:19;30.70;98.50
2314;DHT22;42279;51.388;7.000;2023-06-22T10:35:45;30.90;96.80
2314;DHT22;42279;51.388;7.000;2023-06-22T10:38:11;30.80;96.80
2314;DHT22;42279;51.388;7.000;2023-06-22T10:40:37;30.60;95.90
2314;DHT22;42279;51.388;7.000;2023-06-22T10:43:04;30.40;97.00
2314;DHT22;42279;51.388;7.000;2023-06-22T10:45:30;30.20;96.70
2314;DHT22;42279;51.388;7.000;2023-06-22T10:47:56;29.50;97.20
2314;DHT22;42279;51.388;7.000;2023-06-22T10:50:21;29.10;98.80
2314;DHT22;42279;51.388;7.000;2023-06-22T10:52:49;28.90;99.80
2314;DHT22;42279;51.388;7.000;2023-06-22T10:55:14;28.70;99.90
2314;DHT22;42279;51.388;7.000;2023-06-22T10:57:40;28.40;99.90
2314;DHT22;42279;51.388;7.000;2023-06-22T11:00:09;28.30;99.90
2314;DHT22;42279;51.388;7.000;2023-06-22T11:02:34;28.20;99.90
2314;DHT22;42279;51.388;7.000;2023-06-22T11:05:03;28.20;99.90
2314;DHT22;42279;51.388;7.000;2023-06-22T11:07:29;27.90;99.90
2314;DHT22;42279;51.388;7.000;2023-06-22T11:09:58;27.70;99.90
2314;DHT22;42279;51.388;7.000;2023-06-22T11:12:23;27.70;99.90
2314;DHT22;42279;51.388;7.000;2023-06-22T11:14:49;27.60;99.90
2314;DHT22;42279;51.388;7.000;2023-06-22T11:17:19;27.40;99.90
2314;DHT22;42279;51.388;7.000;2023-06-22T11:19:44;27.00;99.90
2314;DHT22;42279;51.388;7.000;2023-06-22T11:22:10;26.60;99.90
2314;DHT22;42279;51.388;7.000;2023-06-22T11:24:36;26.40;99.90
2314;DHT22;42279;51.388;7.000;2023-06-22T11:27:01;26.10;99.90
2314;DHT22;42279;51.388;7.000;2023-06-22T11:29:27;25.70;99.90
2314;DHT22;42279;51.388;7.000;2023-06-22T11:31:53;25.50;99.90
2314;DHT22;42279;51.388;7.000;2023-06-22T11:34:18;25.20;99.90
2314;DHT22;42279;51.388;7.000;2023-06-22T11:36:44;25.00;99.90
2314;DHT22;42279;51.388;7.000;2023-06-22T11:39:10;24.70;99.90
2314;DHT22;42279;51.388;7.000;2023-06-22T11:41:39;24.60;99.90
2314;DHT22;42279;51.388;7.000;2023-06-22T11:44:04;24.40;99.90
2314;DHT22;42279;51.388;7.000;2023-06-22T11:46:30;24.20;99.90
2314;DHT22;42279;51.388;7.000;2023-06-22T11:48:57;23.80;99.90
2314;DHT22;42279;51.388;7.000;2023-06-22T11:51:22;23.70;99.90
2314;DHT22;42279;51.388;7.000;2023-06-22T11:53:48;23.60;99.90
2314;DHT22;42279;51.388;7.000;2023-06-22T11:56:13;23.50;99.90
2314;DHT22;42279;51.388;7.000;2023-06-22T11:58:39;23.50;99.90
2314;DHT22;42279;51.388;7.000;2023-06-22T12:01:05;23.50;99.90
2314;DHT22;42279;51.388;7.000;2023-06-22T12:03:34;23.50;99.90
2314;DHT22;42279;51.388;7.000;2023-06-22T12:06:02;23.50;99.90
2314;DHT22;42279;51.388;7.000;2023-06-22T12:08:28;23.50;99.90
2314;DHT22;42279;51.388;7.000;2023-06-22T12:10:53;23.50;99.90
2314;DHT22;42279;51.388;7.000;2023-06-22T12:13:19;23.70;99.90
2314;DHT22;42279;51.388;7.000;2023-06-22T12:15:45;23.70;99.90
2314;DHT22;42279;51.388;7.000;2023-06-22T12:18:11;23.80;99.90
2314;DHT22;42279;51.388;7.000;2023-06-22T12:20:36;23.80;99.90
2314;DHT22;42279;51.388;7.000;2023-06-22T12:23:02;23.80;99.90
2314;DHT22;42279;51.388;7.000;2023-06-22T12:25:28;23.70;99.90
2314;DHT22;42279;51.388;7.000;2023-06-22T12:27:53;23.60;99.90
2314;DHT22;42279;51.388;7.000;2023-06-22T12:30:19;23.70;99.90
2314;DHT22;42279;51.388;7.000;2023-06-22T12:32:45;23.50;99.90
2314;DHT22;42279;51.388;7.000;2023-06-22T12:35:10;23.40;99.90
2314;DHT22;42279;51.388;7.000;2023-06-22T12:37:40;23.40;99.90
2314;DHT22;42279;51.388;7.000;2023-06-22T12:40:07;23.40;99.90
2314;DHT22;42279;51.388;7.000;2023-06-22T12:42:33;23.20;99.90
2314;DHT22;42279;51.388;7.000;2023-06-22T12:44:58;23.20;99.90
2314;DHT22;42279;51.388;7.000;2023-06-22T12:47:24;23.20;99.90
2314;DHT22;42279;51.388;7.000;2023-06-22T12:49:52;23.10;99.90
2314;DHT22;42279;51.388;7.000;2023-06-22T12:52:18;23.10;99.90
2314;DHT22;42279;51.388;7.000;2023-06-22T12:54:43;23.10;99.90
2314;DHT22;42279;51.388;7.000;2023-06-22T12:57:09;23.20;99.90
2314;DHT22;42279;51.388;7.000;2023-06-22T12:59:44;23.30;99.90
2314;DHT22;42279;51.388;7.000;2023-06-22T13:02:34;23.40;99.90
2314;DHT22;42279;51.388;7.000;2023-06-22T13:05:11;23.60;99.90
2314;DHT22;42279;51.388;7.000;2023-06-22T13:07:36;23.80;99.90
2314;DHT22;42279;51.388;7.000;2023-06-22T13:10:05;23.90;99.90
2314;DHT22;42279;51.388;7.000;2023-06-22T13:12:31;24.00;99.90
2314;DHT22;42279;51.388;7.000;2023-06-22T13:14:56;24.10;99.90
2314;DHT22;42279;51.388;7.000;2023-06-22T13:17:22;24.30;99.90
2314;DHT22;42279;51.388;7.000;2023-06-22T13:19:47;24.30;99.90
2314;DHT22;42279;51.388;7.000;2023-06-22T13:22:34;24.20;99.90
2314;DHT22;42279;51.388;7.000;2023-06-22T13:25:05;24.10;99.90
2314;DHT22;42279;51.388;7.000;2023-06-22T13:27:31;23.90;99.90
2314;DHT22;42279;51.388;7.000;2023-06-22T13:30:00;23.80;99.90
2314;DHT22;42279;51.388;7.000;2023-06-22T13:32:26;23.90;99.90
2314;DHT22;42279;51.388;7.000;2023-06-22T13:34:53;23.90;99.90
2314;DHT22;42279;51.388;7.000;2023-06-22T13:37:35;23.80;99.90
2314;DHT22;42279;51.388;7.000;2023-06-22T13:40:00;23.80;99.90
2314;DHT22;42279;51.388;7.000;2023-06-22T13:42:29;23.70;99.90
2314;DHT22;42279;51.388;7.000;2023-06-22T13:44:55;23.80;99.90
2314;DHT22;42279;51.388;7.000;2023-06-22T13:47:23;23.80;99.90
2314;DHT22;42279;51.388;7.000;2023-06-22T13:49:49;24.00;99.90
2314;DHT22;42279;51.388;7.000;2023-06-22T13:52:14;24.20;99.90
2314;DHT22;42279;51.388;7.000;2023-06-22T13:54:40;24.30;99.90
2314;DHT22;42279;51.388;7.000;2023-06-22T13:57:06;24.30;99.90
2314;DHT22;42279;51.388;7.000;2023-06-22T13:59:32;24.50;99.90
2314;DHT22;42279;51.388;7.000;2023-06-22T14:01:57;24.40;99.90
2314;DHT22;42279;51.388;7.000;2023-06-22T14:04:23;24.40;99.90
2314;DHT22;42279;51.388;7.000;2023-06-22T14:06:52;24.30;99.90
2314;DHT22;42279;51.388;7.000;2023-06-22T14:09:18;24.20;99.90
2314;DHT22;42279;51.388;7.000;2023-06-22T14:11:43;24.10;99.90
2314;DHT22;42279;51.388;7.000;2023-06-22T14:14:12;24.10;99.90
2314;DHT22;42279;51.388;7.000;2023-06-22T14:16:37;24.10;99.90
2314;DHT22;42279;51.388;7.000;2023-06-22T14:19:10;24.10;99.90
2314;DHT22;42279;51.388;7.000;2023-06-22T14:21:36;24.20;99.90
2314;DHT22;42279;51.388;7.000;2023-06-22T14:24:01;24.20;99.90
2314;DHT22;42279;51.388;7.000;2023-06-22T14:26:27;24.30;99.90
2314;DHT22;42279;51.388;7.000;2023-06-22T14:28:53;24.10;99.90
2314;DHT22;42279;51.388;7.000;2023-06-22T14:31:19;24.20;99.90
2314;DHT22;42279;51.388;7.000;2023-06-22T14:33:51;24.20;99.90
2314;DHT22;42279;51.388;7.000;2023-06-22T14:36:17;24.20;99.90
2314;DHT22;42279;51.388;7.000;2023-06-22T14:38:43;24.20;99.90
2314;DHT22;42279;51.388;7.000;2023-06-22T14:41:09;24.20;99.90
2314;DHT22;42279;51.388;7.000;2023-06-22T14:43:34;24.40;99.90
2314;DHT22;42279;51.388;7.000;2023-06-22T14:46:00;24.20;99.90
2314;DHT22;42279;51.388;7.000;2023-06-22T14:48:37;24.20;99.90
2314;DHT22;42279;51.388;7.000;2023-06-22T14:51:03;24.20;99.90
2314;DHT22;42279;51.388;7.000;2023-06-22T14:53:29;24.20;99.90
2314;DHT22;42279;51.388;7.000;2023-06-22T14:55:54;24.10;99.90
2314;DHT22;42279;51.388;7.000;2023-06-22T14:58:22;24.20;99.90
2314;DHT22;42279;51.388;7.000;2023-06-22T15:00:48;24.20;99.90
2314;DHT22;42279;51.388;7.000;2023-06-22T15:03:14;24.30;99.90
2314;DHT22;42279;51.388;7.000;2023-06-22T15:05:46;24.40;99.90
2314;DHT22;42279;51.388;7.000;2023-06-22T15:08:12;24.40;99.90
2314;DHT22;42279;51.388;7.000;2023-06-22T15:10:37;24.20;99.90
2314;DHT22;42279;51.388;7.000;2023-06-22T15:13:06;24.10;99.90
2314;DHT22;42279;51.388;7.000;2023-06-22T15:15:32;24.20;99.90
2314;DHT22;42279;51.388;7.000;2023-06-22T15:17:59;24.10;99.90
2314;DHT22;42279;51.388;7.000;2023-06-22T15:20:27;24.10;99.90
2314;DHT22;42279;51.388;7.000;2023-06-22T15:22:53;24.20;99.90
2314;DHT22;42279;51.388;7.000;2023-06-22T15:25:19;24.30;99.90
2314;DHT22;42279;51.388;7.000;2023-06-22T15:27:44;24.30;99.90
2314;DHT22;42279;51.388;7.000;2023-06-22T15:30:10;24.20;99.90
2314;DHT22;42279;51.388;7.000;2023-06-22T15:32:36;24.20;99.90
2314;DHT22;42279;51.388;7.000;2023-06-22T15:35:02;23.90;99.90
2314;DHT22;42279;51.388;7.000;2023-06-22T15:37:28;23.90;99.90
2314;DHT22;42279;51.388;7.000;2023-06-22T15:39:54;23.90;99.90
2314;DHT22;42279;51.388;7.000;2023-06-22T15:42:21;23.60;99.90
2314;DHT22;42279;51.388;7.000;2023-06-22T15:44:47;23.40;99.90
2314;DHT22;42279;51.388;7.000;2023-06-22T15:47:13;23.30;99.90
2314;DHT22;42279;51.388;7.000;2023-06-22T15:49:47;23.20;99.90
2314;DHT22;42279;51.388;7.000;2023-06-22T15:52:13;23.10;99.90
2314;DHT22;42279;51.388;7.000;2023-06-22T15:54:43;23.00;99.90